Time;durP1;ratioP1;P1;durP2;ratioP2;P2;SDS_P1;SDS_P2;PMS_P1;PMS_P2;Temp;Humidity;BMP_temperature;BMP_pressure;BME280_temperature;BME280_humidity;BME280_pressure;Samples;Min_cycle;Max_cycle;Signal;HPM_P1;HPM_P2
2022/12/30 00:00:14;;;;;;;38.50;19.23;;;;;;;6.25;82.67;100837.41;5056893;28;20045;-66
2022/12/30 00:02:39;;;;;;;30.83;17.98;;;;;;;6.30;81.57;100833.50;5056850;28;20104;-66
2022/12/30 00:05:05;;;;;;;33.03;19.00;;;;;;;6.33;81.15;100845.59;5056734;28;20047;-66
2022/12/30 00:07:34;;;;;;;30.05;16.73;;;;;;;6.25;80.84;100851.38;5057143;28;20351;-66
2022/12/30 00:10:03;;;;;;;29.23;17.25;;;;;;;6.00;82.17;100854.00;5056699;28;20605;-64
2022/12/30 00:35:24;;;;;;;36.22;21.42;;;;;;;5.90;81.86;100850.31;5050578;28;20109;-67
2022/12/30 00:37:50;;;;;;;37.90;21.85;;;;;;;6.00;81.03;100840.88;5051672;28;20044;-68
2022/12/30 00:40:15;;;;;;;41.72;21.67;;;;;;;6.06;81.55;100843.06;5050727;28;20034;-66
2022/12/30 00:45:26;;;;;;;38.97;21.98;;;;;;;6.25;80.91;100845.28;5050280;28;20083;-66
2022/12/30 00:47:52;;;;;;;36.70;23.08;;;;;;;5.91;80.50;100852.00;5051074;28;20033;-66
2022/12/30 00:58:30;;;;;;;45.67;23.98;;;;;;;5.59;84.08;100857.63;5048334;28;20098;-66
2022/12/30 01:00:56;;;;;;;46.80;24.42;;;;;;;5.39;84.37;100861.59;5050020;28;20041;-66
2022/12/30 01:03:21;;;;;;;46.38;23.38;;;;;;;5.44;84.23;100849.00;5051151;28;20028;-67
2022/12/30 01:05:47;;;;;;;41.67;22.10;;;;;;;5.48;84.06;100856.66;5051595;28;20299;-66
2022/12/30 01:08:12;;;;;;;43.38;22.77;;;;;;;5.50;84.40;100857.41;5054925;28;20314;-66
2022/12/30 01:10:38;;;;;;;54.83;26.08;;;;;;;5.42;83.87;100844.78;5052325;28;20057;-65
2022/12/30 01:13:04;;;;;;;45.03;25.17;;;;;;;5.69;83.92;100842.94;5058215;28;20056;-67
2022/12/30 01:15:30;;;;;;;40.92;22.40;;;;;;;5.89;82.72;100848.63;5058681;28;20075;-67
2022/12/30 01:17:55;;;;;;;55.80;26.73;;;;;;;5.94;82.38;100841.28;5058740;28;20048;-68
2022/12/30 01:20:20;;;;;;;40.58;22.42;;;;;;;5.95;81.60;100848.22;5058339;28;20043;-66
2022/12/30 01:22:46;;;;;;;41.47;22.48;;;;;;;5.85;81.77;100842.72;5058895;28;20044;-66
2022/12/30 01:25:11;;;;;;;45.63;23.20;;;;;;;6.01;80.98;100842.53;5058087;28;20049;-67
2022/12/30 01:27:37;;;;;;;46.28;23.52;;;;;;;6.04;80.76;100842.31;5059503;28;20040;-67
2022/12/30 01:30:03;;;;;;;42.30;22.70;;;;;;;6.09;79.53;100833.16;5058625;28;20033;-66
2022/12/30 01:32:30;;;;;;;39.78;21.50;;;;;;;6.13;79.00;100830.34;5057873;28;20366;-67
2022/12/30 01:34:56;;;;;;;36.88;20.27;;;;;;;6.16;78.47;100832.75;5058658;28;20025;-66
2022/12/30 01:37:23;;;;;;;33.92;20.48;;;;;;;6.15;78.50;100837.16;5059011;28;20041;-67
2022/12/30 01:39:49;;;;;;;32.20;19.80;;;;;;;6.25;78.22;100826.88;5058511;28;20040;-66
2022/12/30 01:42:23;;;;;;;40.08;20.13;;;;;;;6.18;76.81;100828.22;5058631;28;20045;-66
2022/12/30 01:44:48;;;;;;;36.33;20.45;;;;;;;6.16;75.39;100823.06;5058133;28;20043;-67
2022/12/30 01:47:37;;;;;;;34.47;20.23;;;;;;;6.17;75.96;100819.50;5058032;28;20065;-66
2022/12/30 01:50:26;;;;;;;35.97;20.30;;;;;;;5.92;77.11;100817.72;5057662;28;20345;-67
2022/12/30 01:52:58;;;;;;;33.72;19.90;;;;;;;6.02;76.64;100810.88;5058323;28;20364;-67
2022/12/30 01:55:39;;;;;;;36.83;20.02;;;;;;;6.06;75.81;100812.34;5058454;28;20040;-67
2022/12/30 01:58:14;;;;;;;32.28;19.45;;;;;;;6.01;75.25;100801.31;5058406;28;20527;-67
2022/12/30 02:00:40;;;;;;;39.97;20.42;;;;;;;5.80;76.92;100799.31;5057111;28;20040;-67
2022/12/30 02:03:06;;;;;;;39.05;19.60;;;;;;;5.91;76.74;100796.81;5058275;28;20047;-66
2022/12/30 02:05:35;;;;;;;35.60;19.02;;;;;;;5.96;75.14;100803.44;5057875;28;20037;-67
2022/12/30 02:08:09;;;;;;;34.88;19.65;;;;;;;6.01;76.04;100797.84;5057077;28;20047;-66
2022/12/30 02:10:37;;;;;;;41.35;20.98;;;;;;;5.95;76.19;100790.38;5057679;28;20056;-64
2022/12/30 02:13:03;;;;;;;42.38;20.90;;;;;;;5.73;76.98;100781.34;5058380;28;20219;-64
2022/12/30 02:15:54;;;;;;;39.20;21.50;;;;;;;5.58;79.42;100798.16;5057392;28;20043;-64
2022/12/30 02:18:43;;;;;;;34.05;19.75;;;;;;;5.66;78.39;100793.22;5056105;28;20362;-64
2022/12/30 02:21:14;;;;;;;36.15;20.02;;;;;;;5.61;78.16;100790.06;5062535;28;20047;-65
2022/12/30 02:24:14;;;;;;;36.97;22.02;;;;;;;5.63;78.29;100792.59;5057940;28;20048;-64
2022/12/30 02:27:15;;;;;;;40.45;23.08;;;;;;;5.53;77.73;100786.28;5057711;28;20048;-65
2022/12/30 02:30:01;;;;;;;40.50;22.00;;;;;;;5.43;78.26;100793.94;5055738;28;20041;-65
2022/12/30 02:32:44;;;;;;;43.55;21.67;;;;;;;5.44;78.02;100785.94;5056962;28;20045;-64
2022/12/30 02:35:45;;;;;;;37.55;22.05;;;;;;;5.28;79.11;100795.81;5057882;28;20048;-64
2022/12/30 02:38:32;;;;;;;40.75;21.67;;;;;;;5.16;79.53;100798.38;5057543;28;20352;-63
2022/12/30 02:47:04;;;;;;;39.90;21.88;;;;;;;5.49;78.74;100804.03;5057609;28;20082;-65
2022/12/30 02:49:32;;;;;;;39.05;21.65;;;;;;;5.51;78.26;100806.56;5057307;28;20036;-66
2022/12/30 02:52:14;;;;;;;44.28;22.35;;;;;;;5.58;76.99;100810.44;5057344;28;20032;-64
2022/12/30 02:54:45;;;;;;;39.40;22.50;;;;;;;5.59;77.60;100806.88;5057443;28;20044;-64
2022/12/30 02:57:40;;;;;;;38.03;21.27;;;;;;;5.45;77.18;100808.66;5057920;28;20375;-66
2022/12/30 03:05:58;;;;;;;37.47;20.10;;;;;;;5.48;75.63;100807.59;5056409;28;20452;-66
2022/12/30 03:08:27;;;;;;;38.47;20.75;;;;;;;5.53;75.02;100816.00;5055821;28;20043;-65
2022/12/30 03:11:15;;;;;;;36.60;20.42;;;;;;;5.54;74.93;100809.81;5056663;28;20052;-64
2022/12/30 03:13:55;;;;;;;36.78;22.20;;;;;;;5.49;76.42;100809.28;5055469;28;20033;-63
2022/12/30 03:16:35;;;;;;;39.75;20.55;;;;;;;5.51;75.75;100810.03;5056544;28;20090;-64
2022/12/30 03:19:12;;;;;;;44.38;23.35;;;;;;;5.32;75.58;100801.69;5057259;28;20071;-65
2022/12/30 03:21:41;;;;;;;37.90;20.17;;;;;;;5.22;76.36;100808.50;5057488;28;20033;-64
2022/12/30 03:27:05;;;;;;;50.60;25.77;;;;;;;5.16;77.11;100825.47;5056514;28;20043;-65
2022/12/30 03:29:37;;;;;;;45.65;28.13;;;;;;;5.35;77.45;100819.88;5055688;28;20207;-65
2022/12/30 03:32:05;;;;;;;54.83;29.42;;;;;;;5.48;77.32;100822.53;5056990;28;20074;-64
2022/12/30 03:34:31;;;;;;;51.60;28.30;;;;;;;5.50;76.87;100824.09;5055742;28;20040;-64
2022/12/30 03:37:10;;;;;;;47.00;25.30;;;;;;;5.52;76.85;100827.47;5056555;28;20868;-64
2022/12/30 03:39:40;;;;;;;56.40;28.48;;;;;;;5.54;77.10;100824.72;5056302;28;20041;-65
2022/12/30 03:42:06;;;;;;;47.63;25.80;;;;;;;5.39;77.66;100816.94;5056700;28;20416;-67
2022/12/30 03:44:33;;;;;;;44.30;22.98;;;;;;;5.54;76.51;100822.09;5056441;28;20319;-66
2022/12/30 03:46:59;;;;;;;43.35;25.10;;;;;;;5.58;76.04;100821.78;5056449;28;20037;-65
2022/12/30 03:49:24;;;;;;;45.42;25.02;;;;;;;5.42;75.85;100824.63;5056290;28;20108;-64
2022/12/30 03:51:50;;;;;;;45.17;23.95;;;;;;;5.26;76.33;100825.75;5056391;28;20033;-64
2022/12/30 03:54:15;;;;;;;36.83;20.75;;;;;;;5.32;75.26;100838.47;5055937;28;20033;-64
2022/12/30 03:56:40;;;;;;;36.40;20.85;;;;;;;5.27;73.41;100822.16;5055958;28;20199;-65
2022/12/30 03:59:06;;;;;;;35.60;21.08;;;;;;;5.27;73.86;100827.44;5056154;28;20318;-65
2022/12/30 04:01:31;;;;;;;36.38;21.23;;;;;;;5.16;75.46;100827.25;5055998;28;20048;-65
2022/12/30 04:03:57;;;;;;;36.55;20.95;;;;;;;5.20;76.96;100832.25;5055657;28;20032;-65
2022/12/30 04:06:23;;;;;;;39.22;21.35;;;;;;;4.80;77.75;100834.81;5049991;28;20076;-64
2022/12/30 04:08:48;;;;;;;38.75;20.70;;;;;;;4.93;76.74;100828.75;5051488;28;20357;-65
2022/12/30 04:11:14;;;;;;;40.53;23.20;;;;;;;5.01;75.68;100842.22;5050504;28;20322;-64
2022/12/30 04:13:39;;;;;;;48.22;30.70;;;;;;;5.03;75.45;100843.81;5051092;28;20452;-64
2022/12/30 04:16:05;;;;;;;45.97;25.00;;;;;;;5.02;74.55;100841.28;5050980;28;20051;-64
2022/12/30 04:18:30;;;;;;;35.65;21.40;;;;;;;4.85;75.11;100841.53;5051299;28;20063;-65
2022/12/30 04:20:56;;;;;;;46.03;23.20;;;;;;;4.84;75.64;100845.94;5049065;28;20045;-65
2022/12/30 04:23:22;;;;;;;35.53;21.05;;;;;;;4.92;75.10;100838.41;5051162;28;20078;-65
2022/12/30 04:25:47;;;;;;;32.22;21.35;;;;;;;4.97;74.83;100838.13;5049730;28;20113;-65
2022/12/30 04:28:13;;;;;;;34.80;21.98;;;;;;;5.00;74.23;100841.38;5047035;28;20044;-64
2022/12/30 04:30:38;;;;;;;38.30;20.98;;;;;;;5.02;73.80;100841.28;5050122;28;20044;-65
2022/12/30 04:33:03;;;;;;;40.72;21.60;;;;;;;4.75;73.42;100843.91;5051864;28;20196;-64
2022/12/30 04:35:29;;;;;;;39.08;20.83;;;;;;;4.87;73.32;100843.13;5050634;28;20314;-66
2022/12/30 04:37:55;;;;;;;36.28;22.90;;;;;;;4.88;73.15;100828.22;5051685;28;20108;-64
2022/12/30 04:40:20;;;;;;;34.80;20.35;;;;;;;4.89;72.97;100843.03;5052360;28;20033;-64
2022/12/30 04:42:45;;;;;;;53.33;28.25;;;;;;;4.76;73.71;100845.59;5055868;28;20052;-65
2022/12/30 04:45:11;;;;;;;43.97;25.50;;;;;;;4.58;74.02;100852.00;5053783;28;20222;-64
2022/12/30 04:47:37;;;;;;;42.22;24.42;;;;;;;4.62;74.61;100841.22;5054895;28;20323;-64
2022/12/30 04:50:03;;;;;;;39.58;20.73;;;;;;;4.62;73.88;100843.84;5055068;28;20043;-64
2022/12/30 04:52:28;;;;;;;40.72;24.40;;;;;;;4.64;74.33;100847.22;5055773;28;20037;-64
2022/12/30 04:54:54;;;;;;;39.28;21.77;;;;;;;4.70;73.60;100852.06;5055116;28;20079;-64
2022/12/30 04:57:19;;;;;;;41.50;22.23;;;;;;;4.46;74.60;100849.22;5053627;28;20037;-64
2022/12/30 04:59:44;;;;;;;68.22;36.47;;;;;;;4.30;77.67;100852.91;5051794;28;20027;-65
2022/12/30 05:02:10;;;;;;;50.35;28.05;;;;;;;4.36;77.65;100852.50;5054141;28;20087;-64
2022/12/30 05:04:35;;;;;;;51.60;27.45;;;;;;;4.42;78.21;100852.97;5052792;28;20041;-64
2022/12/30 05:07:01;;;;;;;44.78;24.40;;;;;;;4.42;78.67;100852.97;5055748;28;20115;-65
2022/12/30 05:09:27;;;;;;;44.35;23.27;;;;;;;4.42;78.88;100858.22;5055124;28;20091;-64
2022/12/30 05:11:52;;;;;;;48.25;24.30;;;;;;;4.52;77.60;100865.50;5053810;28;20817;-65
2022/12/30 05:14:18;;;;;;;45.63;25.02;;;;;;;4.65;75.20;100859.41;5055903;28;20029;-66
2022/12/30 05:16:43;;;;;;;40.08;23.23;;;;;;;4.59;74.84;100872.91;5053773;28;20370;-65
2022/12/30 05:19:09;;;;;;;35.45;21.83;;;;;;;4.47;74.77;100863.19;5054666;28;20075;-64
2022/12/30 05:21:34;;;;;;;41.88;23.45;;;;;;;4.56;74.11;100867.84;5053734;28;20193;-64
2022/12/30 05:26:44;;;;;;;41.85;21.40;;;;;;;4.58;75.33;100867.75;5054113;28;20099;-65
2022/12/30 05:29:09;;;;;;;37.38;20.80;;;;;;;4.61;75.34;100867.56;5047339;28;20033;-65
2022/12/30 05:31:35;;;;;;;40.15;22.30;;;;;;;4.68;75.49;100866.22;5056785;28;20048;-64
2022/12/30 05:34:00;;;;;;;42.40;23.67;;;;;;;4.73;75.41;100870.25;5052909;28;20342;-66
2022/12/30 05:36:25;;;;;;;44.30;24.95;;;;;;;4.78;75.68;100872.59;5053934;28;20033;-64
2022/12/30 05:38:51;;;;;;;52.83;26.67;;;;;;;4.80;75.70;100876.78;5054467;28;20039;-64
2022/12/30 05:41:16;;;;;;;43.72;24.90;;;;;;;4.74;75.66;100871.94;5052763;28;20028;-66
2022/12/30 05:43:42;;;;;;;43.50;23.27;;;;;;;4.68;74.34;100879.34;5054673;28;20033;-65
2022/12/30 05:46:07;;;;;;;47.42;24.25;;;;;;;4.67;74.21;100875.03;5052282;28;20047;-65
2022/12/30 05:48:33;;;;;;;38.03;22.48;;;;;;;4.66;74.88;100868.94;5053676;28;20405;-64
2022/12/30 05:50:58;;;;;;;39.97;20.73;;;;;;;4.63;76.08;100882.25;5053983;28;20130;-64
2022/12/30 05:53:23;;;;;;;37.83;19.60;;;;;;;4.67;76.51;100877.66;5053460;28;20028;-63
2022/12/30 05:55:50;;;;;;;38.63;20.38;;;;;;;4.60;76.60;100879.00;5053883;28;20052;-64
2022/12/30 05:58:15;;;;;;;59.75;30.58;;;;;;;4.55;77.30;100879.28;5049240;28;20033;-64
2022/12/30 06:00:41;;;;;;;66.10;32.00;;;;;;;4.62;77.01;100875.34;5052343;28;20293;-65
2022/12/30 06:03:07;;;;;;;60.90;30.83;;;;;;;4.69;76.86;100884.50;5053877;28;20032;-65
2022/12/30 06:05:32;;;;;;;49.00;26.63;;;;;;;4.63;77.15;100861.28;5053689;28;20044;-65
2022/12/30 06:07:58;;;;;;;51.67;28.63;;;;;;;4.87;76.74;100881.66;5052007;28;20029;-65
2022/12/30 06:10:23;;;;;;;53.78;27.83;;;;;;;4.65;76.54;100890.88;5053456;28;20219;-64
2022/12/30 06:12:49;;;;;;;55.17;25.95;;;;;;;4.79;76.48;100893.47;5054467;28;20043;-64
2022/12/30 06:15:14;;;;;;;41.60;24.90;;;;;;;4.81;75.57;100891.59;5053878;28;20430;-66
2022/12/30 06:17:40;;;;;;;41.28;23.02;;;;;;;4.90;74.51;100886.69;5052807;28;20041;-64
2022/12/30 06:20:05;;;;;;;41.15;23.75;;;;;;;4.98;74.15;100887.91;5052123;28;20036;-65
2022/12/30 06:22:31;;;;;;;48.83;24.90;;;;;;;5.04;73.41;100894.53;5053214;28;20352;-64
2022/12/30 06:24:56;;;;;;;45.00;25.48;;;;;;;5.10;73.29;100894.13;5051312;28;20080;-64
2022/12/30 06:27:22;;;;;;;48.92;26.50;;;;;;;5.11;74.01;100891.41;5052976;28;20052;-64
2022/12/30 06:29:48;;;;;;;68.72;36.55;;;;;;;5.05;74.34;100897.06;5052528;28;20217;-65
2022/12/30 06:32:14;;;;;;;72.63;38.50;;;;;;;5.00;75.39;100904.38;5054643;28;20075;-64
2022/12/30 06:34:39;;;;;;;76.32;39.05;;;;;;;5.02;75.40;100899.88;5052801;28;20112;-65
2022/12/30 06:37:05;;;;;;;78.57;41.42;;;;;;;5.09;75.53;100902.97;5053173;28;20041;-64
2022/12/30 06:39:30;;;;;;;79.25;41.13;;;;;;;5.17;75.89;100910.34;5051380;28;20035;-64
2022/12/30 06:41:56;;;;;;;74.30;38.60;;;;;;;5.31;75.83;100911.16;5053147;28;20095;-65
2022/12/30 06:44:21;;;;;;;58.45;32.38;;;;;;;5.38;75.73;100912.44;5052293;28;20047;-65
2022/12/30 06:46:46;;;;;;;49.80;28.73;;;;;;;5.37;74.98;100920.41;5053156;28;20043;-65
2022/12/30 06:49:12;;;;;;;55.38;28.40;;;;;;;5.44;75.41;100919.91;5050624;28;21012;-66
2022/12/30 06:51:37;;;;;;;52.30;26.95;;;;;;;5.38;75.85;100917.69;5053220;28;20206;-65
2022/12/30 06:54:03;;;;;;;44.85;23.88;;;;;;;5.37;76.05;100925.66;5051569;28;20029;-65
2022/12/30 06:56:29;;;;;;;43.45;21.73;;;;;;;5.32;76.86;100925.13;5052038;28;20045;-65
2022/12/30 06:58:55;;;;;;;40.67;21.67;;;;;;;5.34;76.71;100921.47;5046519;28;20035;-65
2022/12/30 07:01:20;;;;;;;42.08;21.83;;;;;;;5.44;77.30;100932.22;5051738;28;20098;-64
2022/12/30 07:03:46;;;;;;;37.75;21.73;;;;;;;5.43;76.64;100931.38;5050582;28;20083;-64
2022/12/30 07:06:11;;;;;;;53.45;26.08;;;;;;;5.52;77.12;100926.44;5052369;28;20037;-64
2022/12/30 07:08:36;;;;;;;79.88;41.60;;;;;;;5.58;76.79;100926.03;5053380;28;20033;-64
2022/12/30 07:11:02;;;;;;;67.25;38.15;;;;;;;5.73;76.87;100920.63;5051978;28;20089;-67
2022/12/30 07:13:28;;;;;;;58.88;30.38;;;;;;;5.89;77.22;100930.09;5053618;28;20116;-67
2022/12/30 07:15:54;;;;;;;63.97;30.23;;;;;;;5.97;77.19;100931.31;5052421;28;20033;-66
2022/12/30 07:18:19;;;;;;;50.90;27.73;;;;;;;6.10;76.64;100928.69;5052372;28;20024;-68
2022/12/30 07:20:45;;;;;;;46.15;24.23;;;;;;;6.20;77.05;100932.38;5053034;28;20487;-68
2022/12/30 07:23:10;;;;;;;42.80;24.90;;;;;;;6.32;75.75;100934.19;5052286;28;20033;-67
2022/12/30 07:25:36;;;;;;;43.25;23.65;;;;;;;6.26;76.82;100933.75;5051952;28;20049;-67
2022/12/30 07:28:02;;;;;;;43.53;23.13;;;;;;;6.23;76.86;100932.16;5053145;28;20063;-67
2022/12/30 07:30:29;;;;;;;43.65;25.45;;;;;;;6.37;77.20;100934.69;5047247;28;20064;-67
2022/12/30 07:32:55;;;;;;;44.10;26.80;;;;;;;6.48;76.92;100933.13;5052553;28;20029;-67
2022/12/30 07:35:22;;;;;;;61.22;34.38;;;;;;;6.59;76.58;100934.06;5051465;28;20033;-67
2022/12/30 07:37:48;;;;;;;60.05;34.47;;;;;;;6.71;76.13;100954.25;5053551;28;20033;-67
2022/12/30 07:40:14;;;;;;;57.55;35.08;;;;;;;6.86;75.43;100940.94;5051288;28;20032;-67
2022/12/30 07:42:39;;;;;;;50.92;30.45;;;;;;;6.85;75.68;100942.75;5051917;28;20033;-66
2022/12/30 07:45:06;;;;;;;43.20;25.42;;;;;;;6.63;75.97;100943.41;5051165;28;20032;-68
2022/12/30 07:47:32;;;;;;;39.65;24.00;;;;;;;6.50;77.72;100953.13;5051020;28;20391;-67
2022/12/30 07:49:59;;;;;;;52.60;29.98;;;;;;;6.47;77.52;100947.22;5051492;28;20792;-68
2022/12/30 07:52:26;;;;;;;44.00;26.13;;;;;;;6.46;78.30;100946.38;5051345;28;20044;-67
2022/12/30 07:54:51;;;;;;;35.33;21.48;;;;;;;6.55;78.76;100947.53;5051071;28;20040;-67
2022/12/30 07:57:17;;;;;;;35.95;20.67;;;;;;;6.68;78.24;100949.19;5051211;28;20279;-67
2022/12/30 07:59:42;;;;;;;33.20;19.70;;;;;;;6.76;78.41;100948.66;5046689;28;20357;-68
2022/12/30 08:02:10;;;;;;;32.95;18.17;;;;;;;6.84;79.04;100946.31;5050743;28;20256;-67
2022/12/30 08:04:36;;;;;;;35.35;19.38;;;;;;;6.93;78.90;100948.28;5050211;28;20040;-67
2022/12/30 08:07:01;;;;;;;36.10;19.52;;;;;;;7.09;79.14;100952.47;5051232;28;20048;-67
2022/12/30 08:09:26;;;;;;;32.97;20.08;;;;;;;7.26;78.45;100952.09;5049266;28;20258;-67
2022/12/30 08:11:52;;;;;;;32.72;20.90;;;;;;;7.29;78.72;100963.28;5051390;28;20424;-67
2022/12/30 08:14:18;;;;;;;34.63;20.38;;;;;;;7.41;78.55;100950.16;5051826;28;20893;-64
2022/12/30 08:16:43;;;;;;;35.80;20.25;;;;;;;7.59;78.15;100951.44;5057111;28;20112;-66
2022/12/30 08:19:08;;;;;;;33.33;19.80;;;;;;;7.69;78.06;100958.56;5055254;28;20349;-65
2022/12/30 08:21:34;;;;;;;32.45;20.33;;;;;;;7.82;77.94;100958.47;5056466;28;20108;-65
2022/12/30 08:23:59;;;;;;;34.08;20.00;;;;;;;8.02;77.81;100955.19;5055741;28;20028;-65
2022/12/30 08:26:25;;;;;;;32.92;21.20;;;;;;;8.16;77.04;100959.41;5057367;28;20367;-66
2022/12/30 08:28:51;;;;;;;32.72;19.65;;;;;;;8.26;77.34;100951.63;5055345;28;20028;-66
2022/12/30 08:31:22;;;;;;;33.20;21.05;;;;;;;8.36;76.93;100960.59;5055972;28;20033;-65
2022/12/30 08:33:48;;;;;;;32.83;20.63;;;;;;;8.45;76.97;100949.31;5057137;28;20052;-65
2022/12/30 08:36:16;;;;;;;32.22;20.95;;;;;;;8.46;77.82;100951.00;5053616;28;20040;-65
2022/12/30 08:38:46;;;;;;;35.88;21.40;;;;;;;8.50;77.43;100951.59;5056513;28;20648;-65
2022/12/30 08:41:18;;;;;;;37.65;22.55;;;;;;;8.63;77.84;100947.88;5056703;28;20299;-65
2022/12/30 08:43:43;;;;;;;31.88;21.10;;;;;;;8.68;77.50;100955.44;5055781;28;20042;-67
2022/12/30 08:46:09;;;;;;;37.90;23.00;;;;;;;8.76;77.30;100937.19;5055426;28;20044;-65
2022/12/30 08:48:34;;;;;;;33.88;21.58;;;;;;;8.85;77.48;100938.25;5052473;28;20083;-65
2022/12/30 08:51:00;;;;;;;37.80;22.50;;;;;;;8.79;77.53;100938.75;5058614;28;20033;-65
2022/12/30 08:53:26;;;;;;;39.83;22.40;;;;;;;8.82;77.75;100934.06;5054900;28;20096;-66
2022/12/30 08:56:19;;;;;;;39.33;22.90;;;;;;;8.98;77.80;100931.03;5050671;28;20029;-66
2022/12/30 08:58:45;;;;;;;36.13;22.15;;;;;;;8.98;77.54;100920.47;5053734;28;20110;-66
2022/12/30 09:01:13;;;;;;;41.58;21.85;;;;;;;8.90;79.41;100922.88;5053569;28;20041;-66
2022/12/30 09:03:41;;;;;;;36.63;22.52;;;;;;;8.94;79.98;100919.03;5050886;28;20045;-65
2022/12/30 09:06:07;;;;;;;39.70;22.38;;;;;;;8.94;80.03;100924.31;5056793;28;20434;-66
2022/12/30 09:08:33;;;;;;;35.58;23.38;;;;;;;8.88;80.72;100917.72;5052347;28;20037;-65
2022/12/30 09:11:04;;;;;;;34.53;21.05;;;;;;;8.93;80.71;100912.06;5055897;28;20072;-65
2022/12/30 09:13:31;;;;;;;35.78;22.38;;;;;;;8.82;83.06;100910.28;5053784;28;20041;-65
2022/12/30 09:15:57;;;;;;;33.53;20.52;;;;;;;8.78;84.27;100908.03;5052586;28;20366;-65
2022/12/30 09:18:23;;;;;;;34.83;21.27;;;;;;;8.71;84.68;100906.81;5050464;28;20029;-67
2022/12/30 09:20:49;;;;;;;32.30;21.67;;;;;;;8.43;86.58;100903.72;5059759;28;20094;-64
2022/12/30 09:23:15;;;;;;;37.35;20.58;;;;;;;8.44;87.43;100905.41;5054913;28;20433;-66
2022/12/30 09:25:40;;;;;;;33.13;20.38;;;;;;;8.39;86.41;100899.66;5051894;28;20044;-68
2022/12/30 09:28:06;;;;;;;34.47;19.85;;;;;;;8.47;86.66;100901.69;5055518;28;20025;-65
2022/12/30 09:30:31;;;;;;;29.45;17.92;;;;;;;8.48;87.07;100896.28;5040318;28;20227;-66
2022/12/30 09:32:57;;;;;;;26.75;16.48;;;;;;;8.57;87.00;100892.91;5046240;28;20052;-66
2022/12/30 09:35:22;;;;;;;32.50;17.83;;;;;;;8.46;87.33;100887.66;5056859;28;20029;-65
2022/12/30 09:37:48;;;;;;;29.15;18.55;;;;;;;8.41;88.35;100883.69;5058640;28;20033;-65
2022/12/30 09:40:17;;;;;;;32.15;19.95;;;;;;;8.39;88.28;100881.16;5057706;28;20033;-65
2022/12/30 09:45:42;;;;;;;27.83;16.92;;;;;;;8.39;87.53;100867.13;5058387;28;20083;-65
2022/12/30 09:48:17;;;;;;;28.77;17.23;;;;;;;8.46;87.68;100868.31;5056842;28;20049;-65
2022/12/30 09:50:51;;;;;;;27.90;18.05;;;;;;;8.61;86.41;100852.13;5060273;28;20037;-65
2022/12/30 09:53:35;;;;;;;32.17;18.40;;;;;;;8.85;86.21;100846.66;5058904;28;20042;-66
2022/12/30 09:56:10;;;;;;;;;;;;;;;8.96;86.14;100843.16;5060671;28;20281;-66
2022/12/30 09:58:36;;;;;;;25.10;15.23;;;;;;;9.05;84.75;100845.03;5058983;28;19958;-66
2022/12/30 10:01:27;;;;;;;27.17;15.73;;;;;;;9.26;83.93;100838.00;5060373;28;20052;-65
2022/12/30 10:03:56;;;;;;;24.42;15.10;;;;;;;9.35;82.85;100838.19;5050292;28;20076;-66
2022/12/30 10:06:27;;;;;;;23.35;15.25;;;;;;;9.47;82.46;100826.63;5058849;28;20067;-66
2022/12/30 10:09:20;;;;;;;23.63;15.45;;;;;;;9.47;82.67;100829.25;5057747;28;20319;-64
2022/12/30 10:11:48;;;;;;;31.50;19.25;;;;;;;9.38;83.24;100824.75;5059435;28;20064;-66
2022/12/30 10:14:29;;;;;;;25.13;14.50;;;;;;;9.44;82.64;100821.59;5059202;28;20126;-65
2022/12/30 10:17:16;;;;;;;30.25;15.50;;;;;;;9.42;81.65;100821.72;5056945;28;20060;-65
2022/12/30 10:19:50;;;;;;;23.85;15.32;;;;;;;9.36;81.34;100814.28;5059592;28;20493;-65
2022/12/30 10:22:22;;;;;;;21.40;13.63;;;;;;;9.41;82.23;100806.81;5059011;28;20048;-64
2022/12/30 10:25:16;;;;;;;24.83;14.73;;;;;;;9.44;82.46;100803.09;5059119;28;20055;-65
2022/12/30 10:27:49;;;;;;;23.95;14.48;;;;;;;9.55;83.15;100801.22;5059389;28;20382;-66
2022/12/30 10:30:19;;;;;;;23.50;15.05;;;;;;;9.59;83.00;100791.22;5058115;28;20048;-65
2022/12/30 10:32:55;;;;;;;25.15;16.05;;;;;;;9.64;82.73;100793.47;5060806;28;20253;-65
2022/12/30 10:35:26;;;;;;;27.73;16.20;;;;;;;9.73;83.13;100790.88;5058377;28;20048;-65
2022/12/30 10:38:19;;;;;;;27.80;15.65;;;;;;;9.80;82.39;100788.53;5057677;28;20040;-65
2022/12/30 10:41:03;;;;;;;27.92;16.45;;;;;;;9.82;81.72;100787.44;5060095;28;20074;-65
2022/12/30 10:43:56;;;;;;;26.15;16.42;;;;;;;9.79;81.51;100792.16;5056983;28;20055;-67
2022/12/30 10:46:48;;;;;;;26.45;17.27;;;;;;;9.86;80.58;100777.44;5057186;28;20164;-66
2022/12/30 10:49:22;;;;;;;27.60;16.65;;;;;;;9.97;81.33;100771.22;5053364;28;20061;-65
2022/12/30 10:51:49;;;;;;;27.98;17.42;;;;;;;9.86;81.95;100774.78;5061706;28;20037;-65
2022/12/30 10:54:15;;;;;;;25.77;16.25;;;;;;;9.78;81.70;100766.69;5056440;28;20037;-64
2022/12/30 10:56:42;;;;;;;22.73;15.68;;;;;;;9.89;82.02;100762.13;5057021;28;20036;-64
2022/12/30 10:59:14;;;;;;;29.60;15.93;;;;;;;10.07;81.22;100758.84;5056878;28;20032;-67
2022/12/30 11:01:42;;;;;;;26.55;16.35;;;;;;;10.06;80.90;100751.91;5056394;28;20115;-64
2022/12/30 11:04:38;;;;;;;22.90;15.45;;;;;;;10.09;81.32;100746.34;5057792;28;20222;-65
2022/12/30 11:07:06;;;;;;;28.60;16.77;;;;;;;10.11;80.71;100744.38;5056927;28;20200;-67
2022/12/30 11:09:32;;;;;;;28.13;16.52;;;;;;;10.15;80.61;100743.16;5056653;28;20100;-67
2022/12/30 11:15:06;;;;;;;29.10;18.20;;;;;;;10.17;82.06;100746.50;5057192;28;20973;-64
2022/12/30 11:17:55;;;;;;;25.33;15.98;;;;;;;9.99;82.16;100737.53;5056042;28;20037;-64
2022/12/30 11:20:24;;;;;;;28.95;16.95;;;;;;;10.20;80.45;100731.22;5060892;28;20041;-64
2022/12/30 11:22:52;;;;;;;31.42;18.45;;;;;;;10.16;81.49;100732.44;5056265;28;20068;-67
2022/12/30 11:25:28;;;;;;;31.42;17.15;;;;;;;10.26;81.19;100723.69;5056448;28;20041;-64
2022/12/30 11:27:57;;;;;;;23.85;15.90;;;;;;;10.21;81.88;100721.47;5057061;28;20110;-65
2022/12/30 11:30:31;;;;;;;29.05;17.95;;;;;;;10.12;82.30;100722.25;5056214;28;20024;-66
2022/12/30 11:33:16;;;;;;;30.67;16.48;;;;;;;10.08;81.50;100715.56;5065446;28;20036;-64
2022/12/30 11:35:46;;;;;;;22.67;14.73;;;;;;;10.10;82.25;100722.38;5055473;28;20076;-65
2022/12/30 11:38:31;;;;;;;27.73;16.20;;;;;;;10.25;81.80;100704.34;5056417;28;20044;-64
2022/12/30 11:40:57;;;;;;;27.40;16.10;;;;;;;10.17;80.80;100714.72;5056820;28;20044;-65
2022/12/30 11:43:23;;;;;;;27.25;16.27;;;;;;;10.11;82.23;100708.19;5056971;28;20039;-67
2022/12/30 11:46:01;;;;;;;29.08;16.98;;;;;;;10.21;81.80;100711.72;5053594;28;20044;-66
2022/12/30 11:48:44;;;;;;;25.65;16.75;;;;;;;10.38;82.07;100712.03;5049820;28;20025;-66
2022/12/30 11:51:16;;;;;;;28.23;16.98;;;;;;;10.26;81.52;100707.81;5051653;28;20104;-66
2022/12/30 11:53:42;;;;;;;25.73;16.08;;;;;;;10.20;81.59;100709.19;5052657;28;20059;-66
2022/12/30 11:56:07;;;;;;;28.58;16.52;;;;;;;10.20;81.82;100696.81;5051913;28;20045;-65
2022/12/30 11:58:35;;;;;;;28.35;17.23;;;;;;;10.29;81.98;100696.97;5052682;28;20062;-66
2022/12/30 12:01:11;;;;;;;31.95;17.13;;;;;;;10.33;82.30;100693.06;5051058;28;20381;-66
2022/12/30 12:03:57;;;;;;;28.38;17.77;;;;;;;10.43;82.34;100697.44;5051189;28;20041;-66
2022/12/30 12:06:22;;;;;;;28.63;16.95;;;;;;;10.64;81.10;100699.94;5052318;28;20376;-66
2022/12/30 12:08:53;;;;;;;29.50;17.10;;;;;;;10.71;79.59;100695.75;5053199;28;20310;-66
2022/12/30 12:11:23;;;;;;;30.02;16.20;;;;;;;10.70;80.02;100696.75;5051727;28;20045;-67
2022/12/30 12:13:55;;;;;;;24.15;17.10;;;;;;;10.79;79.34;100698.56;5052284;28;20037;-67
2022/12/30 12:16:42;;;;;;;30.55;18.55;;;;;;;10.58;79.92;100692.56;5053021;28;20103;-67
2022/12/30 12:19:32;;;;;;;30.67;18.60;;;;;;;10.73;79.68;100688.50;5053259;28;20075;-66
2022/12/30 12:22:02;;;;;;;36.17;18.75;;;;;;;10.84;78.99;100690.19;5052034;28;20033;-63
2022/12/30 12:24:39;;;;;;;35.15;20.17;;;;;;;10.78;80.32;100685.44;5054589;28;20105;-68